Time;durP1;ratioP1;P1;durP2;ratioP2;P2;SDS_P1;SDS_P2;PMS_P1;PMS_P2;Temp;Humidity;BMP_temperature;BMP_pressure;BME280_temperature;BME280_humidity;BME280_pressure;Samples;Min_cycle;Max_cycle;Signal;HPM_P1;HPM_P2
2022/11/14 00:01:56;;;;;;;11.33;10.00;;;5.60;99.90;;;;;;5047653;28;20635;-53
2022/11/14 00:04:23;;;;;;;13.83;9.47;;;5.50;99.90;;;;;;5029202;28;20202;-51
2022/11/14 00:06:50;;;;;;;14.43;10.47;;;5.50;99.90;;;;;;5036716;28;20299;-51
2022/11/14 00:09:24;;;;;;;13.67;10.43;;;5.50;99.90;;;;;;5039048;28;20721;-50
2022/11/14 00:11:51;;;;;;;9.30;8.33;;;5.50;99.90;;;;;;5034078;28;20702;-51
2022/11/14 00:14:18;;;;;;;12.50;9.53;;;5.50;99.90;;;;;;5024380;28;20212;-51
2022/11/14 00:16:45;;;;;;;11.63;10.10;;;5.50;99.90;;;;;;5035942;28;20225;-50
2022/11/14 00:19:13;;;;;;;11.10;9.43;;;5.50;99.90;;;;;;5042387;28;20260;-51
2022/11/14 00:21:40;;;;;;;11.23;8.87;;;5.50;99.90;;;;;;5049440;28;20207;-50
2022/11/14 00:24:07;;;;;;;9.83;8.67;;;5.50;99.90;;;;;;5041520;28;20257;-51
2022/11/14 00:26:35;;;;;;;12.87;9.50;;;5.50;99.90;;;;;;5037432;28;20224;-50
2022/11/14 00:29:02;;;;;;;9.80;8.80;;;5.50;99.90;;;;;;5034678;28;20216;-50
2022/11/14 00:31:29;;;;;;;11.83;8.73;;;5.40;99.90;;;;;;5035291;28;20202;-51
2022/11/14 00:33:56;;;;;;;13.70;10.23;;;5.50;99.90;;;;;;5034747;28;20213;-51
2022/11/14 00:36:23;;;;;;;11.27;9.33;;;5.40;99.90;;;;;;5038945;28;20227;-50
2022/11/14 00:38:53;;;;;;;10.73;9.63;;;5.40;99.90;;;;;;5044275;28;20223;-51
2022/11/14 00:41:20;;;;;;;11.47;9.83;;;5.40;99.90;;;;;;5038400;28;20204;-51
2022/11/14 00:43:48;;;;;;;11.93;8.97;;;5.40;99.90;;;;;;5051034;28;20251;-50
2022/11/14 00:46:15;;;;;;;13.97;9.90;;;5.40;99.90;;;;;;5040392;28;20233;-51
2022/11/14 00:48:43;;;;;;;12.40;9.80;;;5.30;99.90;;;;;;5048944;28;20254;-51
2022/11/14 00:51:10;;;;;;;15.13;10.10;;;5.40;99.90;;;;;;5042533;28;20217;-53
2022/11/14 00:53:37;;;;;;;13.67;9.90;;;5.40;99.90;;;;;;5058128;28;20267;-52
2022/11/14 00:56:05;;;;;;;13.47;10.53;;;5.40;99.90;;;;;;5064174;28;20250;-51
2022/11/14 00:58:32;;;;;;;14.17;10.73;;;5.40;99.90;;;;;;5055060;28;20274;-51
2022/11/14 01:01:00;;;;;;;16.60;10.83;;;5.40;99.90;;;;;;5032354;28;20201;-50
2022/11/14 01:03:27;;;;;;;15.13;11.47;;;5.50;99.90;;;;;;5041639;28;20204;-51
2022/11/14 01:05:54;;;;;;;11.73;9.37;;;5.40;99.90;;;;;;5028528;28;20283;-52
2022/11/14 01:08:21;;;;;;;11.27;10.17;;;5.40;99.90;;;;;;5034065;28;20224;-51
2022/11/14 01:10:51;;;;;;;14.20;11.03;;;5.40;99.90;;;;;;5042195;28;20207;-51
2022/11/14 01:13:19;;;;;;;13.37;11.30;;;5.30;99.90;;;;;;5044983;28;20265;-51
2022/11/14 01:15:48;;;;;;;12.77;9.33;;;5.30;99.90;;;;;;5032777;28;20260;-51
2022/11/14 01:18:19;;;;;;;13.13;10.60;;;5.40;99.90;;;;;;5033331;28;20272;-51
2022/11/14 01:20:47;;;;;;;14.70;10.70;;;5.30;99.90;;;;;;5034863;28;20290;-51
2022/11/14 01:23:16;;;;;;;13.20;9.83;;;5.30;99.90;;;;;;5039576;28;20236;-51
2022/11/14 01:25:43;;;;;;;14.97;10.17;;;5.30;99.90;;;;;;5034462;28;20200;-52
2022/11/14 01:28:13;;;;;;;16.87;11.27;;;5.40;99.90;;;;;;5038556;28;20660;-51
2022/11/14 01:30:40;;;;;;;11.63;9.47;;;5.50;99.90;;;;;;5033231;28;20674;-51
2022/11/14 01:33:07;;;;;;;14.57;9.97;;;5.50;99.90;;;;;;5029858;28;20213;-51
2022/11/14 01:35:37;;;;;;;13.33;10.83;;;5.40;99.90;;;;;;5036424;28;20208;-51
2022/11/14 01:38:06;;;;;;;14.77;10.80;;;5.40;99.90;;;;;;5042034;28;20212;-50
2022/11/14 01:40:33;;;;;;;14.47;11.43;;;5.50;99.90;;;;;;5032748;28;20756;-52
2022/11/14 01:43:28;;;;;;;13.27;10.60;;;5.50;99.90;;;;;;5037398;28;20624;-52
2022/11/14 01:45:58;;;;;;;11.77;9.67;;;5.40;99.90;;;;;;5029762;28;20288;-51
2022/11/14 01:48:31;;;;;;;14.87;11.17;;;5.40;99.90;;;;;;5033404;28;20208;-50
2022/11/14 01:51:05;;;;;;;12.10;10.27;;;5.50;99.90;;;;;;5037831;28;20205;-51
2022/11/14 01:53:32;;;;;;;12.37;10.43;;;5.50;99.90;;;;;;5026888;28;20210;-51
2022/11/14 01:56:02;;;;;;;14.53;11.60;;;5.40;99.90;;;;;;5034755;28;20266;-52
2022/11/14 01:58:31;;;;;;;12.63;10.13;;;5.50;99.90;;;;;;5044907;28;20235;-51
2022/11/14 02:00:59;;;;;;;13.37;10.27;;;5.60;99.90;;;;;;5033789;28;20197;-51
2022/11/14 02:03:26;;;;;;;14.73;10.47;;;5.50;99.90;;;;;;5026192;28;20637;-51
2022/11/14 02:05:54;;;;;;;13.40;10.53;;;5.40;99.90;;;;;;5039605;28;20692;-51
2022/11/14 02:08:23;;;;;;;12.53;9.80;;;5.40;99.90;;;;;;5033494;28;20205;-50
2022/11/14 02:10:50;;;;;;;14.77;9.80;;;5.40;99.90;;;;;;5034500;28;20197;-51
2022/11/14 02:13:17;;;;;;;13.90;10.70;;;5.40;99.90;;;;;;5041044;28;20244;-52
2022/11/14 02:15:44;;;;;;;12.23;10.37;;;5.50;99.90;;;;;;5041940;28;20211;-51
2022/11/14 02:18:12;;;;;;;12.87;10.23;;;5.50;99.90;;;;;;5040258;28;20227;-51
2022/11/14 02:20:42;;;;;;;14.27;11.70;;;5.50;99.90;;;;;;5035252;28;20252;-51
2022/11/14 02:23:10;;;;;;;12.27;10.33;;;5.50;99.90;;;;;;5039227;28;20208;-51
2022/11/14 02:25:38;;;;;;;16.13;11.33;;;5.50;99.90;;;;;;5041506;28;20637;-51
2022/11/14 02:28:07;;;;;;;14.33;10.33;;;5.50;99.90;;;;;;5044339;28;20194;-51
2022/11/14 02:30:34;;;;;;;13.57;11.93;;;5.50;99.90;;;;;;5045945;28;20261;-50
2022/11/14 02:33:01;;;;;;;13.80;10.73;;;5.50;99.90;;;;;;5033020;28;20260;-51
2022/11/14 02:35:28;;;;;;;14.87;11.40;;;5.40;99.90;;;;;;5062813;22;20331;-49
2022/11/14 02:37:56;;;;;;;15.53;11.83;;;5.50;99.90;;;;;;5046391;28;20219;-49
2022/11/14 02:40:23;;;;;;;13.70;10.60;;;5.40;99.90;;;;;;5041066;28;20200;-50
2022/11/14 02:42:50;;;;;;;12.40;10.03;;;5.40;99.90;;;;;;5048714;28;20199;-50
2022/11/14 02:45:19;;;;;;;13.00;10.83;;;5.40;99.90;;;;;;5046252;28;20230;-49
2022/11/14 02:47:46;;;;;;;18.37;11.87;;;5.50;99.90;;;;;;5033647;28;20631;-50
2022/11/14 02:50:13;;;;;;;14.70;11.27;;;5.50;99.90;;;;;;5032547;28;20213;-49
2022/11/14 02:52:40;;;;;;;11.93;9.73;;;5.50;99.90;;;;;;5032936;28;20213;-50
2022/11/14 02:55:10;;;;;;;14.37;10.67;;;5.50;99.90;;;;;;5030166;28;20231;-49
2022/11/14 02:57:37;;;;;;;16.17;11.90;;;5.50;99.90;;;;;;5022512;28;20695;-49
2022/11/14 03:00:04;;;;;;;13.73;10.70;;;5.50;99.90;;;;;;5030452;28;20247;-50
2022/11/14 03:02:31;;;;;;;14.67;10.93;;;5.50;99.90;;;;;;5016480;28;20209;-51
2022/11/14 03:04:58;;;;;;;14.50;10.47;;;5.40;99.90;;;;;;5011436;28;20233;-51
2022/11/14 03:07:25;;;;;;;13.83;10.37;;;5.40;99.90;;;;;;5024839;28;20265;-49
2022/11/14 03:09:52;;;;;;;16.50;11.20;;;5.40;99.90;;;;;;5030573;28;20206;-50
2022/11/14 03:12:20;;;;;;;16.73;11.27;;;5.40;99.90;;;;;;5032205;28;20200;-49
2022/11/14 03:14:47;;;;;;;15.43;11.10;;;5.30;99.90;;;;;;5031597;28;20234;-49
2022/11/14 03:17:14;;;;;;;15.83;12.00;;;5.40;99.90;;;;;;5028524;28;20204;-50
2022/11/14 03:19:41;;;;;;;15.17;12.47;;;5.40;99.90;;;;;;5029336;28;20269;-50
2022/11/14 03:22:08;;;;;;;16.03;12.13;;;5.40;99.90;;;;;;5029768;28;20205;-51
2022/11/14 03:24:35;;;;;;;20.87;12.90;;;5.40;99.90;;;;;;5031400;28;20220;-50
2022/11/14 03:27:02;;;;;;;15.30;12.57;;;5.50;99.90;;;;;;5032101;28;20207;-50
2022/11/14 03:29:30;;;;;;;17.73;11.63;;;5.40;99.90;;;;;;5027099;28;20205;-50
2022/11/14 03:31:57;;;;;;;16.43;13.03;;;5.40;99.90;;;;;;5022480;28;20212;-51
2022/11/14 03:34:26;;;;;;;16.43;13.47;;;5.40;99.90;;;;;;5029818;28;20237;-49
2022/11/14 03:36:53;;;;;;;18.53;13.07;;;5.40;99.90;;;;;;5027452;28;20205;-50
2022/11/14 03:39:23;;;;;;;17.23;12.80;;;5.40;99.90;;;;;;5030853;28;20228;-50
2022/11/14 03:41:50;;;;;;;19.03;13.57;;;5.40;99.90;;;;;;5031696;28;20252;-49
2022/11/14 03:44:17;;;;;;;17.50;12.60;;;5.40;99.90;;;;;;5029205;28;20256;-51
2022/11/14 03:46:45;;;;;;;16.20;12.43;;;5.40;99.90;;;;;;5022484;28;20585;-49
2022/11/14 03:49:12;;;;;;;19.37;13.30;;;5.40;99.90;;;;;;5030426;28;20208;-50
2022/11/14 03:51:39;;;;;;;15.13;12.03;;;5.40;99.90;;;;;;5031718;28;20261;-50
2022/11/14 03:54:07;;;;;;;14.00;11.27;;;5.50;99.90;;;;;;5030004;28;20219;-49
2022/11/14 03:56:33;;;;;;;20.27;12.90;;;5.50;99.90;;;;;;5028839;28;20202;-50
2022/11/14 03:59:00;;;;;;;14.83;11.70;;;5.50;99.90;;;;;;5029401;28;20213;-50
2022/11/14 04:01:28;;;;;;;17.47;12.90;;;5.50;99.90;;;;;;5023371;28;20208;-50
2022/11/14 04:03:57;;;;;;;19.83;12.83;;;5.50;99.90;;;;;;5029140;28;20244;-50
2022/11/14 04:06:24;;;;;;;14.90;11.93;;;5.50;99.90;;;;;;5026275;28;20731;-50
2022/11/14 04:08:51;;;;;;;14.80;11.40;;;5.50;99.90;;;;;;5030424;28;20593;-51
2022/11/14 04:11:18;;;;;;;17.37;12.13;;;5.50;99.90;;;;;;5031238;28;20233;-50
2022/11/14 04:13:45;;;;;;;15.20;12.23;;;5.50;99.90;;;;;;5029040;28;20297;-50
2022/11/14 04:16:12;;;;;;;17.67;12.93;;;5.60;99.90;;;;;;5028196;28;20212;-51
2022/11/14 04:18:39;;;;;;;16.83;12.90;;;5.70;99.90;;;;;;5029263;28;20710;-49
2022/11/14 04:21:07;;;;;;;16.27;12.47;;;5.60;99.90;;;;;;5031250;28;20205;-51
2022/11/14 04:23:34;;;;;;;14.50;11.90;;;5.60;99.90;;;;;;5030389;28;20208;-50
2022/11/14 04:26:01;;;;;;;17.37;12.53;;;5.60;99.90;;;;;;5027745;28;20201;-49
2022/11/14 04:28:28;;;;;;;14.53;10.97;;;5.50;99.90;;;;;;5030216;28;20202;-49
2022/11/14 04:30:55;;;;;;;15.00;11.13;;;5.50;99.90;;;;;;5026392;28;20205;-50
2022/11/14 04:33:22;;;;;;;19.23;13.53;;;5.50;99.90;;;;;;5025324;28;20214;-51
2022/11/14 04:35:49;;;;;;;16.07;11.67;;;5.50;99.90;;;;;;5026533;28;20232;-51
2022/11/14 04:38:17;;;;;;;13.27;11.37;;;5.50;99.90;;;;;;5030003;28;20224;-51
2022/11/14 04:40:49;;;;;;;15.33;10.87;;;5.40;99.90;;;;;;5028974;28;20890;-50
2022/11/14 04:43:16;;;;;;;18.70;11.47;;;5.40;99.90;;;;;;5024059;28;20288;-51
2022/11/14 04:45:43;;;;;;;12.43;10.20;;;5.40;99.90;;;;;;5026771;28;20297;-49
2022/11/14 04:48:10;;;;;;;15.00;11.53;;;5.40;99.90;;;;;;5026548;28;20198;-50
2022/11/14 04:50:38;;;;;;;13.40;9.93;;;5.50;99.90;;;;;;5029858;28;20271;-51
2022/11/14 04:53:05;;;;;;;15.73;11.23;;;5.50;99.90;;;;;;5028784;28;20206;-51
2022/11/14 04:55:33;;;;;;;13.93;10.50;;;5.60;99.90;;;;;;5028420;28;20231;-50
2022/11/14 04:58:01;;;;;;;13.03;10.60;;;5.60;99.90;;;;;;5030491;28;20204;-50
2022/11/14 05:00:28;;;;;;;14.10;10.67;;;5.70;99.90;;;;;;5028233;28;20205;-49
2022/11/14 05:02:55;;;;;;;13.17;10.20;;;5.70;99.90;;;;;;5026016;28;20200;-50
2022/11/14 05:05:22;;;;;;;14.43;11.23;;;5.80;99.90;;;;;;5029190;28;20226;-49
2022/11/14 05:07:49;;;;;;;15.60;11.03;;;5.80;99.90;;;;;;5030410;28;20196;-50
2022/11/14 05:10:16;;;;;;;13.00;10.50;;;5.80;99.90;;;;;;5030430;28;20212;-49
2022/11/14 05:12:44;;;;;;;14.87;11.30;;;5.80;99.90;;;;;;5029274;28;20256;-49
2022/11/14 05:15:11;;;;;;;15.37;12.27;;;5.80;99.90;;;;;;5026293;28;20652;-49
2022/11/14 05:17:38;;;;;;;15.50;11.10;;;5.80;99.90;;;;;;5023265;28;20620;-50
2022/11/14 05:20:06;;;;;;;14.43;11.03;;;5.80;99.90;;;;;;5030642;28;20638;-49
2022/11/14 05:22:33;;;;;;;18.13;12.83;;;5.80;99.90;;;;;;5030600;28;20216;-50
2022/11/14 05:25:00;;;;;;;21.63;11.93;;;5.70;99.90;;;;;;5028740;28;20360;-49
2022/11/14 05:27:28;;;;;;;14.80;11.30;;;5.80;99.90;;;;;;5030434;28;20230;-50
2022/11/14 05:29:56;;;;;;;20.10;13.30;;;5.80;99.90;;;;;;5030112;28;20667;-50
2022/11/14 05:32:23;;;;;;;16.60;11.80;;;5.80;99.90;;;;;;5018622;28;20211;-50
2022/11/14 05:34:50;;;;;;;15.57;11.97;;;5.70;99.90;;;;;;5016986;28;20302;-49
2022/11/14 05:37:17;;;;;;;14.80;11.07;;;5.60;99.90;;;;;;5035986;28;20208;-51
2022/11/14 05:39:44;;;;;;;14.67;11.00;;;5.60;99.90;;;;;;5031405;28;20229;-49
2022/11/14 05:42:11;;;;;;;13.30;11.47;;;5.60;99.90;;;;;;5034497;28;20264;-51
2022/11/14 05:44:38;;;;;;;19.63;14.53;;;5.60;99.90;;;;;;5033111;28;20285;-49
2022/11/14 05:47:06;;;;;;;16.13;13.03;;;5.70;99.90;;;;;;5024175;28;20254;-51
2022/11/14 05:49:33;;;;;;;15.50;11.70;;;5.70;99.90;;;;;;5029276;28;20628;-50
2022/11/14 05:52:00;;;;;;;15.67;12.47;;;5.70;99.90;;;;;;5028523;28;20770;-50
2022/11/14 05:54:28;;;;;;;15.70;12.30;;;5.70;99.90;;;;;;5029813;28;20640;-49
2022/11/14 05:56:56;;;;;;;16.13;11.57;;;5.70;99.90;;;;;;5031886;28;20245;-49
2022/11/14 05:59:23;;;;;;;16.50;12.33;;;5.70;99.90;;;;;;5030560;28;20262;-50
2022/11/14 06:01:50;;;;;;;17.57;14.27;;;5.60;99.90;;;;;;5021457;28;20209;-48
2022/11/14 06:04:19;;;;;;;15.10;12.80;;;5.70;99.90;;;;;;5032924;28;20776;-49
2022/11/14 06:06:46;;;;;;;15.50;12.80;;;5.70;99.90;;;;;;5033811;28;20217;-49
2022/11/14 06:09:12;;;;;;;16.20;12.33;;;5.70;99.90;;;;;;5033474;28;20200;-50
2022/11/14 06:11:39;;;;;;;15.50;13.13;;;5.70;99.90;;;;;;5029270;28;20233;-50
2022/11/14 06:14:07;;;;;;;14.67;11.60;;;5.60;99.90;;;;;;5026074;28;20220;-49
2022/11/14 06:16:34;;;;;;;12.37;10.47;;;5.70;99.90;;;;;;5028584;28;20246;-48
2022/11/14 06:19:01;;;;;;;16.37;12.57;;;5.60;99.90;;;;;;5033044;28;20274;-51
2022/11/14 06:21:29;;;;;;;14.57;11.10;;;5.60;99.90;;;;;;5033324;28;20214;-49
2022/11/14 06:23:56;;;;;;;16.33;11.70;;;5.60;99.90;;;;;;5032719;28;20225;-49
2022/11/14 06:26:24;;;;;;;16.40;11.40;;;5.70;99.90;;;;;;5031346;28;20277;-49
2022/11/14 06:28:53;;;;;;;15.27;12.50;;;5.70;99.90;;;;;;5031788;28;20618;-49
2022/11/14 06:31:21;;;;;;;17.50;13.37;;;5.70;99.90;;;;;;5030432;28;20206;-50
2022/11/14 06:33:48;;;;;;;19.20;13.90;;;5.80;99.90;;;;;;5029987;28;20295;-49
2022/11/14 06:36:16;;;;;;;17.20;11.80;;;5.90;99.90;;;;;;5033068;28;20547;-49
2022/11/14 06:38:45;;;;;;;14.93;11.20;;;5.90;99.90;;;;;;5032045;28;20574;-49
2022/11/14 06:41:13;;;;;;;15.00;12.00;;;6.00;99.90;;;;;;5027466;28;20212;-49
2022/11/14 06:43:42;;;;;;;13.83;10.17;;;6.10;99.90;;;;;;5031450;28;20248;-49
2022/11/14 06:46:11;;;;;;;14.13;10.87;;;6.10;99.90;;;;;;5032410;28;20360;-50
2022/11/14 06:48:38;;;;;;;18.07;13.33;;;6.10;99.90;;;;;;5031067;28;20580;-50
2022/11/14 06:51:07;;;;;;;16.67;12.97;;;6.20;99.90;;;;;;5027582;28;20735;-49
2022/11/14 06:53:35;;;;;;;17.83;12.23;;;6.30;99.90;;;;;;5030665;28;20207;-51
2022/11/14 06:56:08;;;;;;;17.20;12.77;;;6.40;99.90;;;;;;5028651;28;21090;-49
2022/11/14 06:58:38;;;;;;;17.10;12.70;;;6.30;99.90;;;;;;5030518;28;20293;-49
2022/11/14 07:01:06;;;;;;;17.53;13.43;;;6.40;99.90;;;;;;5024509;28;20744;-49
2022/11/14 07:03:33;;;;;;;28.13;17.97;;;6.40;99.90;;;;;;5031404;28;20213;-51
2022/11/14 07:06:01;;;;;;;35.00;19.83;;;6.30;99.90;;;;;;5030430;28;20207;-49
2022/11/14 07:08:29;;;;;;;26.08;18.27;;;6.30;99.90;;;;;;5018242;28;21089;-49
2022/11/14 07:11:03;;;;;;;21.87;15.20;;;6.30;99.90;;;;;;5030696;28;20270;-50
2022/11/14 07:13:31;;;;;;;17.53;12.63;;;6.30;99.90;;;;;;5027544;28;20203;-48
2022/11/14 07:15:58;;;;;;;16.13;12.23;;;6.30;99.90;;;;;;5030098;28;20200;-50
2022/11/14 07:18:25;;;;;;;12.90;10.50;;;6.40;99.90;;;;;;5028299;28;20202;-49
2022/11/14 07:20:58;;;;;;;13.37;10.93;;;6.50;99.90;;;;;;5029988;28;20205;-50
2022/11/14 07:23:25;;;;;;;11.73;9.60;;;6.60;99.90;;;;;;5027549;28;20209;-50
2022/11/14 07:25:52;;;;;;;11.27;10.13;;;6.70;99.90;;;;;;5030875;28;20202;-49
2022/11/14 07:28:20;;;;;;;13.20;10.70;;;6.80;99.90;;;;;;5029386;28;20812;-50
2022/11/14 07:30:47;;;;;;;13.50;10.60;;;6.90;99.90;;;;;;5029851;28;20666;-49
2022/11/14 07:33:14;;;;;;;13.27;10.53;;;7.00;99.90;;;;;;5011598;28;20679;-49
2022/11/14 07:35:41;;;;;;;14.67;9.03;;;7.10;99.90;;;;;;5017528;28;20227;-49
2022/11/14 07:38:09;;;;;;;12.07;10.03;;;7.20;99.90;;;;;;5023252;28;20285;-49
2022/11/14 07:40:36;;;;;;;12.23;9.77;;;7.40;99.90;;;;;;5021290;28;20701;-50
2022/11/14 07:43:03;;;;;;;11.13;8.97;;;7.50;99.90;;;;;;5021527;28;20201;-49
2022/11/14 07:45:31;;;;;;;10.63;9.23;;;7.60;99.90;;;;;;5031374;28;20570;-50
2022/11/14 07:48:00;;;;;;;10.63;9.53;;;7.70;99.90;;;;;;5031421;28;20209;-50
2022/11/14 07:50:28;;;;;;;12.30;10.13;;;7.80;99.90;;;;;;5030249;28;20204;-50
2022/11/14 07:52:56;;;;;;;11.60;9.53;;;7.80;99.90;;;;;;5029668;28;20254;-49
2022/11/14 07:55:24;;;;;;;10.70;9.63;;;7.80;99.90;;;;;;5030896;28;20251;-49
2022/11/14 07:57:54;;;;;;;12.00;9.70;;;7.90;99.90;;;;;;5031375;28;20772;-49
2022/11/14 08:00:21;;;;;;;10.83;9.73;;;7.90;99.90;;;;;;5022324;28;20231;-50
2022/11/14 08:02:49;;;;;;;12.27;9.20;;;7.90;99.90;;;;;;5026733;28;20208;-50
2022/11/14 08:05:17;;;;;;;10.67;9.50;;;8.00;99.90;;;;;;5030399;28;20711;-49
2022/11/14 08:07:44;;;;;;;13.80;11.27;;;8.10;99.90;;;;;;5031531;28;20233;-49
2022/11/14 08:10:13;;;;;;;11.30;10.23;;;8.10;99.90;;;;;;5030428;28;20200;-50
2022/11/14 08:12:40;;;;;;;12.90;10.70;;;8.30;99.90;;;;;;5031175;28;20296;-50
2022/11/14 08:15:08;;;;;;;13.77;9.93;;;8.50;99.90;;;;;;5030584;28;20228;-49
2022/11/14 08:17:36;;;;;;;10.50;9.37;;;8.50;99.90;;;;;;5031108;28;20203;-49
2022/11/14 08:20:06;;;;;;;10.20;9.17;;;8.60;99.90;;;;;;5028746;28;20234;-49
2022/11/14 08:22:33;;;;;;;10.77;9.63;;;8.70;99.90;;;;;;5028402;28;20740;-48
2022/11/14 08:25:00;;;;;;;11.23;10.03;;;8.70;99.90;;;;;;5030178;28;20282;-49
2022/11/14 08:27:27;;;;;;;11.37;9.63;;;8.80;99.90;;;;;;5031269;28;20327;-49
2022/11/14 08:29:54;;;;;;;12.67;10.97;;;9.00;99.90;;;;;;5028429;28;20235;-49
2022/11/14 08:32:21;;;;;;;11.43;10.23;;;9.10;99.90;;;;;;5030695;28;20266;-49
2022/11/14 08:34:48;;;;;;;11.03;9.87;;;9.30;99.90;;;;;;5029631;28;20286;-49
2022/11/14 08:37:16;;;;;;;10.87;9.77;;;9.50;99.90;;;;;;5031033;28;20209;-49
2022/11/14 08:39:43;;;;;;;11.40;9.57;;;9.50;99.90;;;;;;5030230;28;20225;-50
2022/11/14 08:42:10;;;;;;;10.23;9.23;;;9.60;99.90;;;;;;5030925;28;20683;-49
2022/11/14 08:44:37;;;;;;;11.43;10.23;;;9.80;99.90;;;;;;5058453;22;20205;-50
2022/11/14 08:47:04;;;;;;;12.00;10.37;;;10.00;99.90;;;;;;5089014;28;20195;-50
2022/11/14 08:49:31;;;;;;;11.63;10.43;;;10.30;99.90;;;;;;5088105;28;20203;-50
2022/11/14 08:51:58;;;;;;;13.17;10.90;;;10.40;99.90;;;;;;5088017;28;20674;-51
2022/11/14 08:54:27;;;;;;;12.87;10.23;;;10.60;99.90;;;;;;5090364;28;20626;-50
2022/11/14 08:56:54;;;;;;;12.57;10.60;;;10.60;99.90;;;;;;5090721;28;20207;-51
2022/11/14 08:59:21;;;;;;;13.20;10.60;;;10.40;99.90;;;;;;5087209;28;20222;-50
2022/11/14 09:01:48;;;;;;;11.87;10.67;;;10.30;99.90;;;;;;5070135;28;20207;-50
2022/11/14 09:04:15;;;;;;;11.07;9.97;;;10.30;99.90;;;;;;5072335;28;20201;-50
2022/11/14 09:06:42;;;;;;;12.23;10.10;;;10.20;99.90;;;;;;5070099;28;20231;-50
2022/11/14 09:09:09;;;;;;;13.07;10.37;;;10.10;99.90;;;;;;5059913;28;20227;-49
2022/11/14 09:11:37;;;;;;;11.07;9.50;;;10.00;99.90;;;;;;5067319;28;20254;-50
2022/11/14 09:14:04;;;;;;;10.83;9.53;;;10.00;99.90;;;;;;5071964;28;20200;-49
2022/11/14 09:16:32;;;;;;;11.43;9.90;;;9.80;99.90;;;;;;5073605;28;20698;-50
2022/11/14 09:18:59;;;;;;;17.13;9.73;;;9.80;99.90;;;;;;5067774;28;20227;-50
2022/11/14 09:21:26;;;;;;;11.03;9.67;;;9.70;99.90;;;;;;5064424;28;20294;-50
2022/11/14 09:23:53;;;;;;;11.90;10.13;;;9.60;99.90;;;;;;5067886;28;20251;-50
2022/11/14 09:26:20;;;;;;;13.10;9.93;;;9.60;99.90;;;;;;5063285;28;20224;-50
2022/11/14 09:28:49;;;;;;;11.77;10.40;;;9.50;99.90;;;;;;5065783;28;20199;-50
2022/11/14 09:31:16;;;;;;;12.13;10.17;;;9.40;99.90;;;;;;5058314;28;20739;-50
2022/11/14 09:33:43;;;;;;;9.93;8.70;;;9.40;99.90;;;;;;5070734;28;20250;-50
2022/11/14 09:36:14;;;;;;;9.20;8.23;;;9.30;99.90;;;;;;5073739;28;20581;-49
2022/11/14 09:38:42;;;;;;;10.10;8.40;;;9.30;99.90;;;;;;5073509;28;20207;-47
2022/11/14 09:41:25;;;;;;;10.07;8.57;;;9.20;99.90;;;;;;5064416;28;20374;-47
2022/11/14 09:44:17;;;;;;;10.17;9.07;;;9.20;99.90;;;;;;5072157;28;20269;-47
2022/11/14 09:46:48;;;;;;;9.00;8.10;;;9.00;99.90;;;;;;5073330;28;20321;-48
2022/11/14 09:49:26;;;;;;;10.33;8.23;;;9.00;99.90;;;;;;5072086;28;20200;-48
2022/11/14 09:52:00;;;;;;;8.07;7.27;;;8.90;99.90;;;;;;5071615;28;20206;-48
2022/11/14 09:54:31;;;;;;;11.20;9.30;;;8.90;99.90;;;;;;5072367;28;20739;-48
2022/11/14 09:56:59;;;;;;;9.73;7.93;;;8.80;99.90;;;;;;5073198;28;20207;-48
2022/11/14 09:59:29;;;;;;;10.87;8.73;;;8.80;99.90;;;;;;5057302;28;20237;-48
2022/11/14 10:02:04;;;;;;;11.57;8.27;;;8.70;99.90;;;;;;5071502;28;20545;-48
2022/11/14 10:04:50;;;;;;;10.77;8.87;;;8.70;99.90;;;;;;5072480;28;20198;-48
2022/11/14 10:07:27;;;;;;;9.17;8.23;;;8.70;99.90;;;;;;5073236;28;20211;-48
2022/11/14 10:10:03;;;;;;;14.87;11.67;;;8.70;99.90;;;;;;5067922;28;20198;-48
2022/11/14 10:12:39;;;;;;;10.57;9.47;;;8.70;99.90;;;;;;5072939;28;20234;-48
2022/11/14 10:15:20;;;;;;;12.83;9.73;;;8.70;99.90;;;;;;5066551;28;20225;-47
2022/11/14 10:18:26;;;;;;;11.23;9.43;;;8.70;99.90;;;;;;5052865;28;20203;-47
2022/11/14 10:20:56;;;;;;;14.33;10.20;;;8.80;99.90;;;;;;5066154;28;20218;-47
2022/11/14 10:23:33;;;;;;;13.53;10.67;;;8.80;99.90;;;;;;5072286;28;20211;-47
2022/11/14 10:26:11;;;;;;;18.87;13.90;;;8.70;99.90;;;;;;5071218;28;20262;-48
2022/11/14 10:28:48;;;;;;;14.03;11.73;;;8.70;99.90;;;;;;5071909;28;20198;-48
2022/11/14 10:31:31;;;;;;;13.57;12.13;;;8.80;99.90;;;;;;5072724;28;20268;-47
2022/11/14 10:34:04;;;;;;;18.33;13.00;;;8.90;99.90;;;;;;5071449;28;20231;-48
2022/11/14 10:36:49;;;;;;;17.47;11.07;;;8.90;99.90;;;;;;5073369;28;20297;-48
2022/11/14 10:39:24;;;;;;;20.23;18.20;;;9.10;99.90;;;;;;5070521;28;20207;-48
2022/11/14 10:41:55;;;;;;;18.03;15.47;;;9.20;99.90;;;;;;5072588;28;20205;-48
2022/11/14 10:44:30;;;;;;;13.73;12.27;;;9.40;99.90;;;;;;5068772;28;20614;-49
2022/11/14 10:47:03;;;;;;;16.27;12.80;;;9.50;99.90;;;;;;5072085;28;20297;-49
2022/11/14 10:49:34;;;;;;;12.47;10.53;;;9.60;99.90;;;;;;5070278;28;20252;-50
2022/11/14 10:52:06;;;;;;;11.37;10.17;;;9.70;99.90;;;;;;5061571;28;20199;-48
2022/11/14 10:54:38;;;;;;;12.67;11.17;;;9.90;99.90;;;;;;5066196;28;20237;-49
2022/11/14 10:57:15;;;;;;;18.53;11.77;;;10.00;99.90;;;;;;5071288;28;20203;-50
2022/11/14 10:59:43;;;;;;;14.80;11.03;;;10.00;99.90;;;;;;5067069;28;20269;-49
2022/11/14 11:02:11;;;;;;;14.17;11.37;;;10.00;99.90;;;;;;5077791;28;20227;-48
2022/11/14 11:04:40;;;;;;;15.07;11.17;;;10.10;99.90;;;;;;5059880;28;20292;-49
2022/11/14 11:13:27;;;;;;;13.10;10.20;;;10.10;99.90;;;;;;5038375;28;20253;-49
2022/11/14 11:15:59;;;;;;;12.80;11.23;;;10.10;99.90;;;;;;5064770;28;20292;-49
2022/11/14 11:18:30;;;;;;;18.03;12.10;;;10.10;99.90;;;;;;5070360;28;20761;-49
2022/11/14 11:21:06;;;;;;;15.40;11.03;;;10.10;99.90;;;;;;5066743;28;20221;-49
2022/11/14 11:23:34;;;;;;;14.90;10.53;;;10.00;99.90;;;;;;5070811;28;20203;-48
2022/11/14 11:26:04;;;;;;;15.97;10.80;;;10.10;99.90;;;;;;5068316;28;20564;-48
2022/11/14 11:28:33;;;;;;;11.43;10.33;;;10.10;99.90;;;;;;5070823;28;20208;-51
2022/11/14 11:31:02;;;;;;;14.17;11.40;;;10.10;99.90;;;;;;5070510;28;20268;-50
2022/11/14 11:33:32;;;;;;;11.13;10.03;;;10.20;99.90;;;;;;5067261;28;20291;-50
2022/11/14 11:36:02;;;;;;;11.43;10.07;;;10.20;99.90;;;;;;5071680;28;20219;-50
2022/11/14 11:38:32;;;;;;;11.30;9.90;;;10.30;99.90;;;;;;5061047;28;20208;-49
2022/11/14 11:41:07;;;;;;;11.40;9.17;;;10.50;99.90;;;;;;5071133;28;20222;-49
2022/11/14 11:43:42;;;;;;;10.90;9.67;;;10.60;99.90;;;;;;5061533;28;20297;-50
2022/11/14 11:46:17;;;;;;;10.63;9.63;;;10.60;99.90;;;;;;5051352;28;20285;-49
2022/11/14 11:48:48;;;;;;;10.67;9.13;;;10.60;99.90;;;;;;5052671;28;20211;-49
2022/11/14 11:51:23;;;;;;;8.77;7.57;;;10.60;99.90;;;;;;5069379;28;20222;-48
2022/11/14 11:53:58;;;;;;;11.03;9.57;;;10.60;99.90;;;;;;5070658;28;20207;-49
2022/11/14 11:56:30;;;;;;;13.67;11.20;;;10.60;99.90;;;;;;5069970;28;20219;-49
2022/11/14 11:59:03;;;;;;;13.73;9.63;;;10.50;99.90;;;;;;5070248;28;20250;-49
2022/11/14 12:01:30;;;;;;;17.43;10.23;;;10.50;99.90;;;;;;5071076;28;20273;-49
2022/11/14 12:04:01;;;;;;;17.33;11.40;;;10.40;99.90;;;;;;5070371;28;20205;-49
2022/11/14 12:06:34;;;;;;;13.43;9.80;;;10.40;99.90;;;;;;5071185;28;20229;-49
2022/11/14 12:09:14;;;;;;;15.50;10.77;;;10.40;99.90;;;;;;5069162;28;20255;-49
2022/11/14 12:11:45;;;;;;;15.63;9.97;;;10.50;99.90;;;;;;5071128;28;20571;-49
2022/11/14 12:14:43;;;;;;;11.20;9.13;;;10.50;99.90;;;;;;5065186;28;20212;-50
2022/11/14 12:17:43;;;;;;;12.33;10.23;;;10.60;99.90;;;;;;5044576;28;20689;-49
2022/11/14 12:20:44;;;;;;;14.90;10.93;;;10.70;99.90;;;;;;5063811;28;20238;-49
2022/11/14 12:23:43;;;;;;;14.60;12.60;;;10.70;99.90;;;;;;5044555;28;20258;-49
2022/11/14 12:26:37;;;;;;;13.27;11.10;;;10.80;99.90;;;;;;5065628;28;20298;-50
2022/11/14 12:29:36;;;;;;;15.17;10.53;;;10.90;99.90;;;;;;5051440;28;20245;-53
2022/11/14 12:32:08;;;;;;;12.20;9.67;;;10.80;99.90;;;;;;5072117;28;20218;-52
2022/11/14 12:34:40;;;;;;;10.17;8.83;;;10.70;99.90;;;;;;5085546;28;20195;-49
2022/11/14 12:37:15;;;;;;;10.40;9.20;;;10.70;99.90;;;;;;5070858;28;20231;-51
2022/11/14 12:39:43;;;;;;;11.13;10.07;;;10.70;99.90;;;;;;5072584;28;20203;-52
2022/11/14 12:42:14;;;;;;;10.23;9.00;;;10.70;99.90;;;;;;5070888;28;20310;-52
2022/11/14 12:44:41;;;;;;;9.70;8.90;;;10.70;99.90;;;;;;5066383;28;20761;-52
2022/11/14 12:47:18;;;;;;;8.87;8.00;;;10.80;99.90;;;;;;5071768;28;20257;-52
2022/11/14 12:49:59;;;;;;;11.27;7.70;;;10.90;99.90;;;;;;5066322;28;20207;-51
2022/11/14 12:52:51;;;;;;;9.00;7.80;;;11.00;99.90;;;;;;5065616;28;20214;-51
2022/11/14 12:55:56;;;;;;;11.57;9.50;;;11.10;99.90;;;;;;5063526;28;20303;-51
2022/11/14 12:58:44;;;;;;;9.40;8.50;;;11.30;99.90;;;;;;5071509;28;20226;-51